createdAt,value
2016-08-13T00:00:44.880Z,98.96
2016-08-13T00:01:44.861Z,99.05
2016-08-13T00:02:44.865Z,99.34
2016-08-13T00:03:44.861Z,99.43
2016-08-13T00:04:44.871Z,99.24
2016-08-13T00:05:44.863Z,99.53
2016-08-13T00:06:44.869Z,99.53
2016-08-13T00:07:44.860Z,99.99
2016-08-13T00:08:44.876Z,99.91
2016-08-13T00:09:44.886Z,99.99
2016-08-13T00:10:44.875Z,99.91
2016-08-13T00:11:44.871Z,99.99
2016-08-13T00:12:44.886Z,99.82
2016-08-13T00:13:44.914Z,99.99
2016-08-13T00:14:44.885Z,99.99
2016-08-13T00:15:44.892Z,99.99
2016-08-13T00:16:44.888Z,99.99
2016-08-13T00:17:44.878Z,99.99
2016-08-13T00:18:44.890Z,99.99
2016-08-13T00:19:44.881Z,99.99
2016-08-13T00:20:44.893Z,99.99
2016-08-13T00:21:44.887Z,99.99
2016-08-13T00:22:44.888Z,99.99
2016-08-13T00:23:44.896Z,99.99
2016-08-13T00:24:44.891Z,99.99
2016-08-13T00:25:44.926Z,99.99
2016-08-13T00:26:44.889Z,99.99
2016-08-13T00:27:44.885Z,99.99
2016-08-13T00:28:44.896Z,99.99
2016-08-13T00:29:44.879Z,99.99
2016-08-13T00:30:44.887Z,99.99
2016-08-13T00:31:44.894Z,99.99
2016-08-13T00:32:44.900Z,99.99
2016-08-13T00:33:44.906Z,99.99
2016-08-13T00:34:44.896Z,99.99
2016-08-13T00:35:44.925Z,99.99
2016-08-13T00:36:44.897Z,99.99
2016-08-13T00:37:44.913Z,99.99
2016-08-13T00:38:45.616Z,99.99
2016-08-13T00:39:44.898Z,99.99
2016-08-13T00:40:44.894Z,99.99
2016-08-13T00:41:44.919Z,99.99
2016-08-13T00:42:44.912Z,99.99
2016-08-13T00:43:44.905Z,99.99
2016-08-13T00:44:44.929Z,99.99
2016-08-13T00:45:44.929Z,99.99
2016-08-13T00:46:44.910Z,99.99
2016-08-13T00:47:44.909Z,99.99
2016-08-13T00:48:44.906Z,99.99
2016-08-13T00:49:44.935Z,99.99
2016-08-13T00:50:44.910Z,99.99
2016-08-13T00:51:44.908Z,99.99
2016-08-13T00:52:44.935Z,99.99
2016-08-13T00:53:44.909Z,99.99
2016-08-13T00:54:44.915Z,99.99
2016-08-13T00:55:44.942Z,99.99
2016-08-13T00:56:44.936Z,99.99
2016-08-13T00:57:44.939Z,99.99
2016-08-13T00:58:44.935Z,99.99
2016-08-13T00:59:44.924Z,99.99
2016-08-13T01:00:44.920Z,99.99
2016-08-13T01:01:44.918Z,99.99
2016-08-13T01:02:44.930Z,99.99
2016-08-13T01:03:44.943Z,99.99
2016-08-13T01:04:45.642Z,99.99
2016-08-13T01:05:44.943Z,99.99
2016-08-13T01:06:44.920Z,99.99
2016-08-13T01:07:44.948Z,99.99
2016-08-13T01:08:44.928Z,99.99
2016-08-13T01:09:45.650Z,99.99
2016-08-13T01:10:44.942Z,99.99
2016-08-13T01:11:44.946Z,99.99
2016-08-13T01:12:44.959Z,99.99
2016-08-13T01:13:44.930Z,99.99
2016-08-13T01:14:44.958Z,99.99
2016-08-13T01:15:44.930Z,99.99
2016-08-13T01:16:44.947Z,99.99
2016-08-13T01:17:44.988Z,99.99
2016-08-13T01:18:44.999Z,99.99
2016-08-13T01:19:44.949Z,99.99
2016-08-13T01:20:44.949Z,99.99
2016-08-13T01:21:44.951Z,99.99
2016-08-13T01:22:44.950Z,99.99
2016-08-13T01:23:44.950Z,99.99
2016-08-13T01:24:44.953Z,99.99
2016-08-13T01:25:44.953Z,99.99
2016-08-13T01:26:44.952Z,99.99
2016-08-13T01:27:44.953Z,99.99
2016-08-13T01:28:44.964Z,99.99
2016-08-13T01:29:44.959Z,99.99
2016-08-13T01:30:44.957Z,99.99
2016-08-13T01:31:44.967Z,99.99
2016-08-13T01:32:44.956Z,99.99
2016-08-13T01:33:44.965Z,99.99
2016-08-13T01:34:44.955Z,99.99
2016-08-13T01:35:44.967Z,99.99
2016-08-13T01:36:44.964Z,99.99
2016-08-13T01:37:44.961Z,99.99
2016-08-13T01:38:44.960Z,99.99
2016-08-13T01:39:44.981Z,99.99
2016-08-13T01:40:44.969Z,99.99
2016-08-13T01:41:44.959Z,99.99
2016-08-13T01:42:44.960Z,99.99
2016-08-13T01:43:44.978Z,99.99
2016-08-13T01:44:44.962Z,99.99
2016-08-13T01:45:44.973Z,99.99
2016-08-13T01:46:44.971Z,99.99
2016-08-13T01:47:44.972Z,99.99
2016-08-13T01:48:44.982Z,99.99
2016-08-13T01:49:44.979Z,99.99
2016-08-13T01:50:44.980Z,99.99
2016-08-13T01:51:44.978Z,99.99
2016-08-13T01:52:44.986Z,99.99
2016-08-13T01:53:44.969Z,99.99
2016-08-13T01:54:44.984Z,99.99
2016-08-13T01:55:44.983Z,99.99
2016-08-13T01:56:44.984Z,99.99
2016-08-13T01:57:44.985Z,99.99
2016-08-13T01:58:44.971Z,99.99
2016-08-13T01:59:44.998Z,99.99
2016-08-13T02:00:44.984Z,99.99
2016-08-13T02:01:44.990Z,99.99
2016-08-13T02:02:44.981Z,99.99
2016-08-13T02:03:44.986Z,99.99
2016-08-13T02:04:44.986Z,99.99
2016-08-13T02:05:45.702Z,99.99
2016-08-13T02:06:44.977Z,99.99
2016-08-13T02:07:44.982Z,99.99
2016-08-13T02:08:44.987Z,99.99
2016-08-13T02:09:44.999Z,99.99
2016-08-13T02:10:45.691Z,99.99
2016-08-13T02:11:44.982Z,99.99
2016-08-13T02:12:44.999Z,99.99
2016-08-13T02:13:44.995Z,99.99
2016-08-13T02:14:44.990Z,99.99
2016-08-13T02:15:45.004Z,99.99
2016-08-13T02:16:44.989Z,99.99
2016-08-13T02:17:44.995Z,99.99
2016-08-13T02:18:45.007Z,99.99
2016-08-13T02:19:45.007Z,99.99
2016-08-13T02:20:45.030Z,99.99
2016-08-13T02:21:44.998Z,99.99
2016-08-13T02:22:44.999Z,99.99
2016-08-13T02:23:44.993Z,99.99
2016-08-13T02:24:45.008Z,99.99
2016-08-13T02:25:44.994Z,99.99
2016-08-13T02:26:45.010Z,99.99
2016-08-13T02:27:45.000Z,99.99
2016-08-13T02:28:44.993Z,99.99
2016-08-13T02:29:44.995Z,99.99
2016-08-13T02:30:44.998Z,99.99
2016-08-13T02:31:44.999Z,99.99
2016-08-13T02:32:45.018Z,99.99
2016-08-13T02:33:45.015Z,99.99
2016-08-13T02:34:45.003Z,99.99
2016-08-13T02:35:44.998Z,99.99
2016-08-13T02:36:45.012Z,99.99
2016-08-13T02:37:45.017Z,99.99
2016-08-13T02:38:45.004Z,99.99
2016-08-13T02:39:45.011Z,99.99
2016-08-13T02:40:45.026Z,99.99
2016-08-13T02:41:45.021Z,99.99
2016-08-13T02:42:45.018Z,99.99
2016-08-13T02:43:45.007Z,99.99
2016-08-13T02:44:45.016Z,99.99
2016-08-13T02:45:45.014Z,99.99
2016-08-13T02:46:45.022Z,99.99
2016-08-13T02:47:45.002Z,99.99
2016-08-13T02:48:45.006Z,99.99
2016-08-13T02:49:45.020Z,99.99
2016-08-13T02:50:45.032Z,99.99
2016-08-13T02:51:45.031Z,99.99
2016-08-13T02:52:45.004Z,99.99
2016-08-13T02:53:45.015Z,99.99
2016-08-13T02:54:45.025Z,99.99
2016-08-13T02:55:45.017Z,99.99
2016-08-13T02:56:45.016Z,99.99
2016-08-13T02:57:45.022Z,99.99
2016-08-13T02:58:45.020Z,99.99
2016-08-13T02:59:45.012Z,99.99
2016-08-13T03:00:45.022Z,99.99
2016-08-13T03:01:45.040Z,99.99
2016-08-13T03:02:45.019Z,99.99
2016-08-13T03:03:45.023Z,99.99
2016-08-13T03:04:45.024Z,99.99
2016-08-13T03:05:45.033Z,99.99
2016-08-13T03:06:45.042Z,99.99
2016-08-13T03:07:45.036Z,99.99
2016-08-13T03:08:45.042Z,99.99
2016-08-13T03:09:45.024Z,99.99
2016-08-13T03:10:45.023Z,99.99
2016-08-13T03:11:45.029Z,99.99
2016-08-13T03:12:45.034Z,99.99
2016-08-13T03:13:45.027Z,99.99
2016-08-13T03:14:45.048Z,99.99
2016-08-13T03:15:45.025Z,99.99
2016-08-13T03:16:45.042Z,99.99
2016-08-13T03:17:45.039Z,99.99
2016-08-13T03:18:45.033Z,99.99
2016-08-13T03:19:45.026Z,99.99
2016-08-13T03:20:45.035Z,99.99
2016-08-13T03:21:45.052Z,99.99
2016-08-13T03:22:45.039Z,99.99
2016-08-13T03:23:45.032Z,99.99
2016-08-13T03:24:45.026Z,99.99
2016-08-13T03:25:45.041Z,99.99
2016-08-13T03:26:45.034Z,99.99
2016-08-13T03:27:45.057Z,99.99
2016-08-13T03:28:45.043Z,99.99
2016-08-13T03:29:45.036Z,99.99
2016-08-13T03:30:45.044Z,99.99
2016-08-13T03:31:45.035Z,99.99
2016-08-13T03:32:45.052Z,99.99
2016-08-13T03:33:45.049Z,99.99
2016-08-13T03:34:45.753Z,99.99
2016-08-13T03:35:45.040Z,99.99
2016-08-13T03:36:45.042Z,99.99
2016-08-13T03:37:45.043Z,99.99
2016-08-13T03:38:45.046Z,99.99
2016-08-13T03:39:45.044Z,99.99
2016-08-13T03:40:45.046Z,99.99
2016-08-13T03:41:45.037Z,99.99
2016-08-13T03:42:45.049Z,99.99
2016-08-13T03:43:45.035Z,99.99
2016-08-13T03:44:45.758Z,99.99
2016-08-13T03:45:45.041Z,99.99
2016-08-13T03:46:45.037Z,99.99
2016-08-13T03:47:45.067Z,99.99
2016-08-13T03:48:45.051Z,99.99
2016-08-13T03:49:45.051Z,99.99
2016-08-13T03:50:45.050Z,99.99
2016-08-13T03:51:45.053Z,99.99
2016-08-13T03:52:45.071Z,99.99
2016-08-13T03:53:45.046Z,99.99
2016-08-13T03:54:45.056Z,99.99
2016-08-13T03:55:45.060Z,99.99
2016-08-13T03:56:45.056Z,99.99
2016-08-13T03:57:45.051Z,99.99
2016-08-13T03:58:45.060Z,99.99
2016-08-13T03:59:45.060Z,99.99
2016-08-13T04:00:45.059Z,99.99
2016-08-13T04:01:45.053Z,99.99
2016-08-13T04:02:45.046Z,99.99
2016-08-13T04:03:45.048Z,99.99
2016-08-13T04:04:45.066Z,99.99
2016-08-13T04:05:45.062Z,99.99
2016-08-13T04:06:45.062Z,99.99
2016-08-13T04:07:45.060Z,99.99
2016-08-13T04:08:45.048Z,99.99
2016-08-13T04:09:45.069Z,99.99
2016-08-13T04:10:45.059Z,99.99
2016-08-13T04:11:45.072Z,99.99
2016-08-13T04:12:45.060Z,99.99
2016-08-13T04:13:45.067Z,99.99
2016-08-13T04:14:45.078Z,99.99
2016-08-13T04:15:45.074Z,99.99
2016-08-13T04:16:45.061Z,99.99
2016-08-13T04:17:45.059Z,99.99
2016-08-13T04:18:45.062Z,99.99
2016-08-13T04:19:45.060Z,99.99
2016-08-13T04:20:45.057Z,99.99
2016-08-13T04:21:45.070Z,99.99
2016-08-13T04:22:45.072Z,99.99
2016-08-13T04:23:45.057Z,99.99
2016-08-13T04:24:45.062Z,99.99
2016-08-13T04:25:45.064Z,99.99
2016-08-13T04:26:45.069Z,99.99
2016-08-13T04:27:45.071Z,99.99
2016-08-13T04:28:45.077Z,99.99
2016-08-13T04:29:45.073Z,99.99
2016-08-13T04:30:45.074Z,99.99
2016-08-13T04:31:45.083Z,99.99
2016-08-13T04:32:45.076Z,99.99
2016-08-13T04:33:45.079Z,99.99
2016-08-13T04:34:45.079Z,99.99
2016-08-13T04:35:45.078Z,99.99
2016-08-13T04:36:45.078Z,99.99
2016-08-13T04:37:45.085Z,99.99
2016-08-13T04:38:45.077Z,99.99
2016-08-13T04:39:45.079Z,99.99
2016-08-13T04:40:45.068Z,99.99
2016-08-13T04:41:45.084Z,99.99
2016-08-13T04:42:45.081Z,99.99
2016-08-13T04:43:45.086Z,99.99
2016-08-13T04:44:45.088Z,99.99
2016-08-13T04:45:45.082Z,99.38
2016-08-13T04:46:45.081Z,98.28
2016-08-13T04:47:45.069Z,97.52
2016-08-13T04:48:45.087Z,96.47
2016-08-13T04:49:45.076Z,95.07
2016-08-13T04:50:45.084Z,94.5
2016-08-13T04:51:45.105Z,93.64
2016-08-13T04:52:45.098Z,93.4
2016-08-13T04:53:45.100Z,91.86
2016-08-13T04:54:45.095Z,91.39
2016-08-13T04:55:45.089Z,91.29
2016-08-13T04:56:45.110Z,90.38
2016-08-13T04:57:45.091Z,89.04
2016-08-13T04:58:45.113Z,88.08
2016-08-13T04:59:45.104Z,87.88
2016-08-13T05:00:45.129Z,87.74
2016-08-13T05:01:45.099Z,87.07
2016-08-13T05:02:45.093Z,86.21
2016-08-13T05:03:45.116Z,85.72
2016-08-13T05:04:45.107Z,85.63
2016-08-13T05:05:45.193Z,85.25
2016-08-13T05:06:45.117Z,84.61
2016-08-13T05:07:45.105Z,83.94
2016-08-13T05:08:45.133Z,83.27
2016-08-13T05:09:45.113Z,82.26
2016-08-13T05:10:45.132Z,81.87
2016-08-13T05:11:45.135Z,80.73
2016-08-13T05:12:45.119Z,80.09
2016-08-13T05:13:45.139Z,79.42
2016-08-13T05:14:45.134Z,79.52
2016-08-13T05:15:45.136Z,78.45
2016-08-13T05:16:45.137Z,78.17
2016-08-13T05:17:45.150Z,77.53
2016-08-13T05:18:45.154Z,76.96
2016-08-13T05:19:45.150Z,76.77
2016-08-13T05:20:45.153Z,75.75
2016-08-13T05:21:45.155Z,74.88
2016-08-13T05:22:45.162Z,74.11
2016-08-13T05:23:45.158Z,73.77
2016-08-13T05:24:45.181Z,73.77
2016-08-13T05:25:45.165Z,73.19
2016-08-13T05:26:45.197Z,72.9
2016-08-13T05:27:45.180Z,72.8
2016-08-13T05:28:45.201Z,73
2016-08-13T05:29:45.183Z,72.42
2016-08-13T05:30:45.197Z,72.52
2016-08-13T05:31:45.198Z,71.49
2016-08-13T05:32:45.200Z,70.82
2016-08-13T05:33:45.197Z,70.72
2016-08-13T05:34:45.196Z,70.43
2016-08-13T05:35:45.200Z,70.82
2016-08-13T05:36:45.219Z,70.34
2016-08-13T05:37:45.223Z,70.62
2016-08-13T05:38:45.222Z,70.92
2016-08-13T05:39:45.936Z,72.17
2016-08-13T05:40:45.221Z,73.09
2016-08-13T05:41:45.231Z,74.21
2016-08-13T05:42:45.227Z,75.75
2016-08-13T05:43:45.232Z,77.25
2016-08-13T05:44:45.234Z,78.36
2016-08-13T05:45:45.244Z,79.38
2016-08-13T05:46:45.245Z,80.91
2016-08-13T05:47:45.245Z,81.84
2016-08-13T05:48:45.247Z,82.31
2016-08-13T05:49:45.263Z,83.75
2016-08-13T05:50:45.261Z,84.19
2016-08-13T05:51:45.257Z,83.75
2016-08-13T05:52:45.266Z,83.27
2016-08-13T05:53:45.267Z,82.6
2016-08-13T05:54:45.275Z,80.97
2016-08-13T05:55:45.270Z,79.28
2016-08-13T05:56:45.272Z,76.44
2016-08-13T05:57:45.283Z,74.85
2016-08-13T05:58:45.279Z,72.96
2016-08-13T05:59:45.281Z,72.42
2016-08-13T06:00:45.291Z,72.32
2016-08-13T06:01:45.291Z,71.49
2016-08-13T06:02:45.291Z,70.92
2016-08-13T06:03:45.295Z,70.34
2016-08-13T06:04:45.301Z,69.02
2016-08-13T06:05:45.306Z,68.64
2016-08-13T06:06:45.314Z,68.16
2016-08-13T06:07:45.318Z,67.33
2016-08-13T06:08:45.324Z,66.85
2016-08-13T06:09:45.320Z,66.3
2016-08-13T06:10:45.325Z,65.53
2016-08-13T06:11:45.327Z,64.21
2016-08-13T06:12:45.333Z,63.44
2016-08-13T06:13:45.341Z,63.34
2016-08-13T06:14:45.342Z,62.7
2016-08-13T06:15:45.351Z,63.09
2016-08-13T06:16:45.355Z,62.79
2016-08-13T06:17:45.364Z,62.22
2016-08-13T06:18:45.364Z,61.35
2016-08-13T06:19:45.406Z,61.09
2016-08-13T06:20:45.374Z,60.89
2016-08-13T06:21:45.395Z,60.54
2016-08-13T06:22:45.387Z,60.06
2016-08-13T06:23:45.389Z,59.67
2016-08-13T06:24:46.104Z,58.9
2016-08-13T06:25:45.405Z,58.93
2016-08-13T06:26:45.409Z,58.73
2016-08-13T06:27:45.412Z,58.64
2016-08-13T06:28:45.422Z,58.25
2016-08-13T06:29:45.427Z,58.06
2016-08-13T06:30:45.434Z,57.67
2016-08-13T06:31:45.441Z,57.12
2016-08-13T06:32:45.459Z,57.21
2016-08-13T06:33:45.459Z,57.7
2016-08-13T06:34:45.466Z,57.7
2016-08-13T06:35:45.469Z,58.06
2016-08-13T06:36:45.474Z,57.57
2016-08-13T06:37:45.475Z,57.19
2016-08-13T06:38:45.495Z,57.12
2016-08-13T06:39:45.488Z,56.93
2016-08-13T06:40:45.495Z,56.93
2016-08-13T06:41:45.499Z,57.12
2016-08-13T06:42:45.504Z,56.54
2016-08-13T06:43:45.515Z,56.45
2016-08-13T06:44:45.520Z,55.99
2016-08-13T06:45:46.237Z,55.89
2016-08-13T06:46:45.537Z,55.89
2016-08-13T06:47:45.536Z,55.7
2016-08-13T06:48:45.549Z,55.15
2016-08-13T06:49:45.554Z,54.08
2016-08-13T06:50:45.562Z,53.63
2016-08-13T06:51:45.568Z,52.85
2016-08-13T06:52:45.574Z,52.78
2016-08-13T06:53:45.577Z,52.49
2016-08-13T06:54:45.584Z,51.62
2016-08-13T06:55:45.607Z,51.64
2016-08-13T06:56:45.597Z,51.16
2016-08-13T06:57:45.614Z,50.96
2016-08-13T06:58:45.619Z,51.16
2016-08-13T06:59:45.623Z,50.89
2016-08-13T07:00:45.636Z,50.31
2016-08-13T07:01:45.635Z,50.02
2016-08-13T07:02:45.640Z,49.44
2016-08-13T07:03:45.650Z,49.56
2016-08-13T07:04:45.659Z,48.69
2016-08-13T07:05:45.661Z,48.49
2016-08-13T07:06:45.678Z,48.22
2016-08-13T07:07:45.677Z,47.25
2016-08-13T07:08:45.694Z,47.47
2016-08-13T07:09:45.695Z,46.89
2016-08-13T07:10:45.709Z,47.28
2016-08-13T07:11:45.704Z,47.55
2016-08-13T07:12:45.715Z,47.64
2016-08-13T07:13:45.723Z,47.55
2016-08-13T07:14:45.739Z,47.83
2016-08-13T07:15:45.738Z,48.13
2016-08-13T07:16:45.749Z,48.61
2016-08-13T07:17:45.753Z,49.17
2016-08-13T07:18:45.758Z,48.69
2016-08-13T07:19:45.775Z,47.74
2016-08-13T07:20:45.774Z,47.38
2016-08-13T07:21:45.783Z,46.89
2016-08-13T07:22:45.793Z,46.6
2016-08-13T07:23:45.797Z,46.62
2016-08-13T07:24:45.806Z,45.84
2016-08-13T07:25:45.824Z,44.99
2016-08-13T07:26:45.822Z,44.89
2016-08-13T07:27:45.829Z,44.24
2016-08-13T07:28:45.837Z,43.85
2016-08-13T07:29:45.847Z,43.26
2016-08-13T07:30:45.861Z,43.38
2016-08-13T07:31:45.862Z,43.19
2016-08-13T07:32:45.884Z,44.26
2016-08-13T07:33:45.882Z,45.4
2016-08-13T07:34:45.884Z,46.25
2016-08-13T07:35:45.894Z,47.18
2016-08-13T07:36:45.906Z,48.64
2016-08-13T07:37:45.909Z,48.9
2016-08-13T07:38:45.929Z,49.56
2016-08-13T07:39:45.951Z,49.39
2016-08-13T07:40:45.938Z,49.1
2016-08-13T07:41:45.952Z,48.13
2016-08-13T07:42:45.953Z,48.22
2016-08-13T07:43:45.962Z,47.66
2016-08-13T07:44:45.974Z,48.35
2016-08-13T07:45:45.966Z,49
2016-08-13T07:46:45.976Z,49.68
2016-08-13T07:47:46.013Z,49.49
2016-08-13T07:48:46.002Z,49.68
2016-08-13T07:49:45.995Z,50.24
2016-08-13T07:50:46.002Z,50.92
2016-08-13T07:51:46.019Z,50.99
2016-08-13T07:52:46.025Z,51.28
2016-08-13T07:53:46.027Z,51.11
2016-08-13T07:54:46.045Z,49.37
2016-08-13T07:55:46.042Z,48.8
2016-08-13T07:56:46.046Z,48.15
2016-08-13T07:57:46.056Z,47.49
2016-08-13T07:58:46.064Z,46.72
2016-08-13T07:59:46.065Z,45.97
2016-08-13T08:00:46.072Z,45.31
2016-08-13T08:01:46.099Z,45.21
2016-08-13T08:02:46.100Z,45.11
2016-08-13T08:03:46.106Z,44.26
2016-08-13T08:04:46.103Z,43.3
2016-08-13T08:05:46.111Z,43.5
2016-08-13T08:06:46.114Z,43.23
2016-08-13T08:07:46.123Z,43.11
2016-08-13T08:08:46.129Z,43.3
2016-08-13T08:09:46.138Z,43.99
2016-08-13T08:10:46.147Z,44.09
2016-08-13T08:11:46.163Z,42.63
2016-08-13T08:12:46.169Z,41.79
2016-08-13T08:13:46.170Z,41.79
2016-08-13T08:14:46.184Z,41.69
2016-08-13T08:15:46.187Z,41.2
2016-08-13T08:16:46.193Z,40.64
2016-08-13T08:17:46.203Z,39.69
2016-08-13T08:18:46.208Z,39.7
2016-08-13T08:19:46.220Z,39.8
2016-08-13T08:20:46.227Z,40.58
2016-08-13T08:21:46.234Z,39.98
2016-08-13T08:22:46.244Z,39.78
2016-08-13T08:23:46.268Z,39.12
2016-08-13T08:24:46.261Z,39.14
2016-08-13T08:25:46.268Z,38.65
2016-08-13T08:26:46.279Z,38.94
2016-08-13T08:27:46.298Z,39.04
2016-08-13T08:28:46.299Z,39.23
2016-08-13T08:29:46.303Z,39.12
2016-08-13T08:30:46.325Z,40.09
2016-08-13T08:31:46.336Z,40.76
2016-08-13T08:32:46.328Z,40.66
2016-08-13T08:33:46.343Z,40.66
2016-08-13T08:34:46.351Z,39.69
2016-08-13T08:35:46.357Z,40
2016-08-13T08:36:46.363Z,40.09
2016-08-13T08:37:46.379Z,40.48
2016-08-13T08:38:46.392Z,40.47
2016-08-13T08:39:46.391Z,40.17
2016-08-13T08:40:46.407Z,41.17
2016-08-13T08:41:46.406Z,39.7
2016-08-13T08:42:46.414Z,39.31
2016-08-13T08:43:46.424Z,40.39
2016-08-13T08:44:46.443Z,40.78
2016-08-13T08:45:46.453Z,40.29
2016-08-13T08:46:46.459Z,42
2016-08-13T08:47:46.466Z,44.32
2016-08-13T08:48:46.468Z,44.96
2016-08-13T08:49:46.474Z,46.59
2016-08-13T08:50:46.482Z,48.49
2016-08-13T08:51:46.497Z,49.63
2016-08-13T08:52:46.499Z,51.75
2016-08-13T08:53:46.508Z,51.81
2016-08-13T08:54:46.517Z,52.08
2016-08-13T08:55:46.535Z,52.73
2016-08-13T08:56:46.532Z,52.64
2016-08-13T08:57:46.538Z,53.99
2016-08-13T08:58:46.547Z,54.06
2016-08-13T08:59:46.567Z,54.35
2016-08-13T09:00:46.575Z,55.58
2016-08-13T09:01:46.570Z,55.3
2016-08-13T09:02:46.579Z,56.56
2016-08-13T09:03:46.589Z,56.14
2016-08-13T09:04:46.590Z,56.24
2016-08-13T09:05:47.346Z,56.43
2016-08-13T09:06:46.617Z,56.04
2016-08-13T09:07:46.619Z,56.04
2016-08-13T09:08:46.622Z,56.34
2016-08-13T09:09:46.630Z,56.14
2016-08-13T09:10:46.640Z,56.79
2016-08-13T09:11:46.635Z,57.46
2016-08-13T09:12:46.643Z,57.56
2016-08-13T09:13:46.655Z,55.27
2016-08-13T09:14:46.652Z,55.15
2016-08-13T09:15:46.664Z,55.07
2016-08-13T09:16:46.669Z,54.88
2016-08-13T09:17:46.670Z,54.39
2016-08-13T09:18:46.673Z,53.63
2016-08-13T09:19:46.680Z,53.72
2016-08-13T09:20:46.694Z,54.01
2016-08-13T09:21:46.690Z,54.11
2016-08-13T09:22:46.702Z,54.39
2016-08-13T09:23:46.755Z,53.91
2016-08-13T09:24:46.709Z,53.81
2016-08-13T09:25:46.711Z,53.63
2016-08-13T09:26:46.731Z,53.43
2016-08-13T09:27:46.730Z,53.99
2016-08-13T09:28:46.731Z,53.53
2016-08-13T09:29:46.733Z,53.43
2016-08-13T09:30:46.738Z,53.5
2016-08-13T09:31:46.742Z,54.21
2016-08-13T09:32:46.747Z,53.81
2016-08-13T09:33:46.753Z,53.14
2016-08-13T09:34:46.762Z,52.27
2016-08-13T09:35:46.762Z,52.46
2016-08-13T09:36:46.770Z,52.66
2016-08-13T09:37:46.776Z,52.08
2016-08-13T09:38:46.785Z,52.2
2016-08-13T09:39:46.786Z,52.1
2016-08-13T09:40:46.789Z,52
2016-08-13T09:41:46.795Z,51.62
2016-08-13T09:42:46.801Z,51.52
2016-08-13T09:43:46.807Z,51.72
2016-08-13T09:44:46.809Z,51.9
2016-08-13T09:45:46.814Z,51.42
2016-08-13T09:46:46.820Z,50.94
2016-08-13T09:47:46.826Z,51.81
2016-08-13T09:48:46.844Z,50.74
2016-08-13T09:49:46.834Z,50.94
2016-08-13T09:50:46.841Z,51.13
2016-08-13T09:51:46.845Z,51.04
2016-08-13T09:52:46.865Z,51.04
2016-08-13T09:53:46.870Z,51.04
2016-08-13T09:54:46.867Z,51.04
2016-08-13T09:55:46.872Z,51.13
2016-08-13T09:56:46.870Z,51.04
2016-08-13T09:57:46.876Z,51.32
2016-08-13T09:58:46.880Z,50.67
2016-08-13T09:59:46.892Z,50.77
2016-08-13T10:00:46.900Z,50.19
2016-08-13T10:01:46.901Z,50.29
2016-08-13T10:02:46.902Z,50.19
2016-08-13T10:03:46.905Z,50.09
2016-08-13T10:04:46.911Z,50.29
2016-08-13T10:05:46.930Z,49.32
2016-08-13T10:06:46.930Z,48.85
2016-08-13T10:07:46.930Z,49.24
2016-08-13T10:08:46.930Z,48.76
2016-08-13T10:09:46.940Z,48.85
2016-08-13T10:10:46.941Z,48.95
2016-08-13T10:11:46.952Z,49.05
2016-08-13T10:12:46.957Z,49.24
2016-08-13T10:13:46.961Z,48.85
2016-08-13T10:14:46.969Z,51.47
2016-08-13T10:15:46.974Z,50.6
2016-08-13T10:16:46.974Z,49.15
2016-08-13T10:17:46.974Z,48.27
2016-08-13T10:18:46.979Z,48.57
2016-08-13T10:19:46.985Z,48.27
2016-08-13T10:20:47.004Z,48.3
2016-08-13T10:21:46.999Z,48.69
2016-08-13T10:22:47.038Z,48.39
2016-08-13T10:23:47.034Z,48.49
2016-08-13T10:24:47.018Z,48.3
2016-08-13T10:25:47.023Z,48.2
2016-08-13T10:26:47.038Z,48.1
2016-08-13T10:27:47.042Z,47.13
2016-08-13T10:28:47.039Z,47.42
2016-08-13T10:29:47.048Z,46.96
2016-08-13T10:30:47.045Z,47.55
2016-08-13T10:31:47.049Z,47.16
2016-08-13T10:32:47.057Z,46.77
2016-08-13T10:33:47.059Z,47.16
2016-08-13T10:34:47.064Z,47.55
2016-08-13T10:35:47.071Z,47.45
2016-08-13T10:36:47.075Z,46.77
2016-08-13T10:37:47.085Z,46.48
2016-08-13T10:38:47.089Z,46.48
2016-08-13T10:39:47.105Z,45.89
2016-08-13T10:40:47.130Z,46.19
2016-08-13T10:41:47.138Z,45.8
2016-08-13T10:42:47.120Z,45.51
2016-08-13T10:43:47.164Z,45.89
2016-08-13T10:44:47.167Z,45.99
2016-08-13T10:45:47.130Z,45.99
2016-08-13T10:46:47.129Z,46.19
2016-08-13T10:47:47.141Z,47.45
2016-08-13T10:48:47.145Z,46.28
2016-08-13T10:49:47.146Z,46.48
2016-08-13T10:50:47.154Z,46.19
2016-08-13T10:51:47.164Z,46.38
2016-08-13T10:52:47.169Z,46.58
2016-08-13T10:53:47.195Z,46.26
2016-08-13T10:54:47.193Z,46.45
2016-08-13T10:55:47.200Z,46.96
2016-08-13T10:56:47.200Z,47.93
2016-08-13T10:57:47.197Z,47.55
2016-08-13T10:58:47.203Z,46.96
2016-08-13T10:59:47.210Z,46.28
2016-08-13T11:00:47.209Z,46.41
2016-08-13T11:01:47.215Z,45.82
2016-08-13T11:02:47.223Z,45.72
2016-08-13T11:03:47.238Z,45.92
2016-08-13T11:04:47.235Z,46.67
2016-08-13T11:05:47.240Z,45.92
2016-08-13T11:06:47.242Z,46.41
2016-08-13T11:07:47.252Z,45.89
2016-08-13T11:08:47.261Z,45.89
2016-08-13T11:09:47.262Z,46.48
2016-08-13T11:10:47.269Z,45.7
2016-08-13T11:11:47.272Z,45.7
2016-08-13T11:12:47.277Z,46.19
2016-08-13T11:13:47.282Z,46.6
2016-08-13T11:14:48.008Z,45.62
2016-08-13T11:15:47.302Z,45.14
2016-08-13T11:16:47.301Z,45.04
2016-08-13T11:17:47.305Z,45.84
2016-08-13T11:18:47.316Z,45.65
2016-08-13T11:19:47.323Z,45.84
2016-08-13T11:20:47.373Z,44.97
2016-08-13T11:21:47.379Z,44.78
2016-08-13T11:22:47.335Z,44.79
2016-08-13T11:23:47.340Z,45.09
2016-08-13T11:24:47.350Z,45.38
2016-08-13T11:25:47.353Z,46.64
2016-08-13T11:26:47.363Z,45.57
2016-08-13T11:27:47.369Z,44.24
2016-08-13T11:28:47.371Z,43.92
2016-08-13T11:29:47.375Z,45.67
2016-08-13T11:30:47.384Z,45.07
2016-08-13T11:31:47.404Z,44.97
2016-08-13T11:32:47.402Z,45.92
2016-08-13T11:33:47.404Z,47.38
2016-08-13T11:34:47.411Z,48.73
2016-08-13T11:35:47.412Z,46.96
2016-08-13T11:36:47.415Z,46.58
2016-08-13T11:37:47.424Z,47.06
2016-08-13T11:38:47.436Z,46.84
2016-08-13T11:39:47.434Z,47.42
2016-08-13T11:40:47.442Z,47.62
2016-08-13T11:41:47.444Z,47.62
2016-08-13T11:42:47.463Z,47.16
2016-08-13T11:43:47.465Z,47.25
2016-08-13T11:44:47.466Z,48.13
2016-08-13T11:45:47.477Z,48.22
2016-08-13T11:46:47.475Z,47.38
2016-08-13T11:47:47.481Z,46.11
2016-08-13T11:48:47.485Z,45.34
2016-08-13T11:49:47.491Z,45.04
2016-08-13T11:50:47.496Z,44.75
2016-08-13T11:51:47.513Z,44.46
2016-08-13T11:52:47.515Z,45.17
2016-08-13T11:53:47.518Z,43.9
2016-08-13T11:54:47.530Z,43.9
2016-08-13T11:55:47.526Z,43.44
2016-08-13T11:56:47.531Z,43.34
2016-08-13T11:57:47.536Z,43.34
2016-08-13T11:58:47.542Z,43.24
2016-08-13T11:59:47.555Z,43.15
2016-08-13T12:00:47.555Z,42.85
2016-08-13T12:01:47.559Z,43.24
2016-08-13T12:02:47.565Z,43.44
2016-08-13T12:03:47.572Z,43.44
2016-08-13T12:04:47.575Z,43.32
2016-08-13T12:05:47.594Z,43.12
2016-08-13T12:07:47.597Z,43.32
2016-08-13T12:08:47.614Z,45.18
2016-08-13T12:09:47.604Z,43.73
2016-08-13T12:10:47.619Z,46.74
2016-08-13T12:11:47.618Z,44.21
2016-08-13T12:12:47.626Z,43.44
2016-08-13T12:13:47.631Z,44.04
2016-08-13T12:14:47.635Z,43.26
2016-08-13T12:15:47.680Z,42.58
2016-08-13T12:16:47.675Z,42.58
2016-08-13T12:17:47.659Z,42.1
2016-08-13T12:18:47.663Z,41.51
2016-08-13T12:19:47.676Z,41.14
2016-08-13T12:20:47.677Z,41.24
2016-08-13T12:21:47.679Z,41.9
2016-08-13T12:22:47.692Z,41.8
2016-08-13T12:23:47.690Z,43.82
2016-08-13T12:24:47.706Z,43.44
2016-08-13T12:25:47.737Z,43.24
2016-08-13T12:27:47.721Z,43.8
2016-08-13T12:28:48.444Z,44.29
2016-08-13T12:29:47.741Z,43.71
2016-08-13T12:30:47.740Z,43.61
2016-08-13T12:31:47.744Z,43.8
2016-08-13T12:32:47.746Z,44.29
2016-08-13T12:33:47.751Z,45.57
2016-08-13T12:34:48.466Z,46.25
2016-08-13T12:35:47.768Z,44.89
2016-08-13T12:36:47.780Z,43.44
2016-08-13T12:37:47.783Z,43.24
2016-08-13T12:38:47.784Z,43.15
2016-08-13T12:39:47.789Z,43.34
2016-08-13T12:40:47.799Z,42.76
2016-08-13T12:41:47.802Z,42.46
2016-08-13T12:42:47.847Z,42.18
2016-08-13T12:43:47.824Z,42.56
2016-08-13T12:44:47.823Z,42.68
2016-08-13T12:45:47.825Z,42.1
2016-08-13T12:46:47.834Z,42.19
2016-08-13T12:47:47.839Z,43.26
2016-08-13T12:48:47.843Z,42.68
2016-08-13T12:49:47.866Z,41.9
2016-08-13T12:50:47.861Z,41.32
2016-08-13T12:51:47.861Z,41.44
2016-08-13T12:52:47.867Z,41.61
2016-08-13T12:53:47.874Z,41.73
2016-08-13T12:54:47.887Z,42
2016-08-13T12:55:47.892Z,42.1
2016-08-13T12:56:47.893Z,42.68